createdAt,value
2018-03-26T00:01:12.503Z,26.13
2018-03-26T00:03:40.800Z,25.63
2018-03-26T00:06:09.083Z,22.57
2018-03-26T00:08:37.368Z,32.00
2018-03-26T00:11:05.667Z,36.00
2018-03-26T00:13:33.949Z,27.67
2018-03-26T00:16:02.244Z,30.73
2018-03-26T00:18:30.528Z,26.90
2018-03-26T00:20:58.812Z,29.50
2018-03-26T00:23:27.094Z,24.90
2018-03-26T00:25:55.388Z,34.60
2018-03-26T00:28:23.671Z,28.13
2018-03-26T00:30:51.951Z,25.20
2018-03-26T00:33:20.248Z,32.10
2018-03-26T00:35:48.520Z,27.17
2018-03-26T00:38:16.800Z,35.83
2018-03-26T00:40:45.116Z,31.13
2018-03-26T00:43:13.448Z,36.10
2018-03-26T00:45:41.681Z,28.57
2018-03-26T00:48:09.983Z,31.80
2018-03-26T00:50:38.263Z,33.50
2018-03-26T00:53:06.555Z,27.60
2018-03-26T00:55:34.840Z,24.47
2018-03-26T00:58:03.116Z,28.83
2018-03-26T01:00:31.408Z,24.60
2018-03-26T01:02:59.700Z,25.23
2018-03-26T01:05:27.981Z,24.17
2018-03-26T01:07:56.261Z,29.17
2018-03-26T01:10:24.572Z,23.70
2018-03-26T01:12:52.868Z,31.17
2018-03-26T01:15:21.153Z,28.47
2018-03-26T01:17:49.448Z,29.07
2018-03-26T01:20:17.732Z,26.63
2018-03-26T01:22:46.016Z,25.93
2018-03-26T01:25:14.309Z,31.90
2018-03-26T01:27:42.592Z,33.33
2018-03-26T01:30:10.872Z,26.47
2018-03-26T01:32:39.171Z,25.60
2018-03-26T01:35:07.451Z,35.30
2018-03-26T01:37:35.743Z,32.43
2018-03-26T01:40:04.040Z,26.93
2018-03-26T01:42:32.318Z,31.07
2018-03-26T01:45:00.628Z,29.87
2018-03-26T01:47:28.919Z,31.70
2018-03-26T01:49:57.196Z,28.47
2018-03-26T01:52:25.479Z,36.87
2018-03-26T01:54:53.779Z,32.67
2018-03-26T01:57:22.067Z,30.83
2018-03-26T01:59:50.344Z,35.90
2018-03-26T02:02:18.640Z,31.33
2018-03-26T02:04:46.947Z,25.33
2018-03-26T02:07:15.199Z,34.63
2018-03-26T02:09:43.504Z,34.67
2018-03-26T02:12:11.780Z,29.30
2018-03-26T02:14:40.055Z,37.47
2018-03-26T02:17:08.347Z,33.43
2018-03-26T02:19:36.627Z,33.57
2018-03-26T02:22:04.928Z,34.97
2018-03-26T02:24:33.208Z,35.33
2018-03-26T02:27:01.491Z,30.93
2018-03-26T02:29:29.780Z,30.70
2018-03-26T02:31:58.073Z,35.37
2018-03-26T02:34:26.371Z,37.40
2018-03-26T02:36:54.651Z,36.10
2018-03-26T02:39:22.932Z,30.33
2018-03-26T02:41:51.228Z,34.33
2018-03-26T02:44:19.520Z,40.93
2018-03-26T02:46:47.818Z,32.80
2018-03-26T02:49:16.098Z,35.23
2018-03-26T02:51:44.373Z,38.50
2018-03-26T02:54:12.672Z,39.40
2018-03-26T02:56:40.962Z,34.50
2018-03-26T02:59:09.239Z,33.30
2018-03-26T03:01:37.792Z,39.37
2018-03-26T03:04:06.072Z,37.67
2018-03-26T03:06:34.364Z,29.67
2018-03-26T03:09:02.647Z,31.03
2018-03-26T03:11:30.957Z,41.27
2018-03-26T03:13:59.239Z,41.33
2018-03-26T03:16:27.523Z,34.43
2018-03-26T03:18:55.826Z,30.10
2018-03-26T03:21:24.118Z,35.27
2018-03-26T03:23:52.407Z,33.90
2018-03-26T03:26:20.692Z,35.33
2018-03-26T03:28:48.975Z,42.33
2018-03-26T03:31:17.264Z,40.23
2018-03-26T03:33:45.543Z,41.53
2018-03-26T03:36:13.845Z,42.10
2018-03-26T03:38:42.128Z,40.30
2018-03-26T03:41:10.410Z,50.67
2018-03-26T03:43:38.700Z,32.77
2018-03-26T03:46:06.983Z,36.00
2018-03-26T03:48:35.284Z,42.77
2018-03-26T03:51:03.563Z,51.90
2018-03-26T03:53:31.848Z,35.43
2018-03-26T03:56:00.144Z,37.53
2018-03-26T03:58:28.431Z,45.67
2018-03-26T04:00:56.728Z,41.90
2018-03-26T04:03:25.010Z,48.90
2018-03-26T04:05:53.284Z,37.70
2018-03-26T04:08:21.571Z,39.23
2018-03-26T04:10:49.852Z,42.73
2018-03-26T04:13:18.151Z,49.10
2018-03-26T04:15:46.432Z,47.80
2018-03-26T04:18:14.700Z,54.93
2018-03-26T04:20:43.003Z,43.80
2018-03-26T04:23:11.291Z,49.87
2018-03-26T04:25:39.591Z,39.80
2018-03-26T04:28:07.871Z,44.87
2018-03-26T04:30:36.147Z,63.13
2018-03-26T04:33:04.442Z,46.33
2018-03-26T04:35:32.719Z,54.97
2018-03-26T04:38:01.019Z,56.87
2018-03-26T04:40:29.295Z,50.10
2018-03-26T04:42:57.580Z,67.50
2018-03-26T04:45:25.871Z,62.70
2018-03-26T04:47:54.144Z,51.70
2018-03-26T04:50:22.439Z,47.80
2018-03-26T04:52:50.720Z,51.50
2018-03-26T04:55:19.012Z,69.67
2018-03-26T04:57:47.303Z,78.73
2018-03-26T05:00:15.576Z,73.50
2018-03-26T05:02:43.875Z,57.13
2018-03-26T05:05:12.155Z,64.30
2018-03-26T05:07:40.432Z,43.90
2018-03-26T05:10:08.720Z,51.00
2018-03-26T05:12:36.995Z,74.13
2018-03-26T05:15:05.528Z,54.40
2018-03-26T05:17:33.803Z,61.07
2018-03-26T05:20:02.083Z,53.63
2018-03-26T05:22:30.370Z,57.70
2018-03-26T05:24:58.648Z,69.07
2018-03-26T05:27:26.936Z,76.83
2018-03-26T05:29:55.228Z,74.80
2018-03-26T05:32:23.495Z,64.57
2018-03-26T05:34:51.784Z,69.10
2018-03-26T05:37:20.055Z,62.77
2018-03-26T05:39:48.377Z,80.10
2018-03-26T05:42:16.652Z,74.77
2018-03-26T05:44:44.927Z,70.80
2018-03-26T05:47:13.216Z,84.57
2018-03-26T05:49:41.488Z,69.23
2018-03-26T05:52:09.815Z,76.17
2018-03-26T05:54:38.102Z,74.93
2018-03-26T05:57:06.379Z,80.17
2018-03-26T05:59:34.670Z,59.17
2018-03-26T06:02:02.942Z,72.50
2018-03-26T06:04:31.231Z,54.13
2018-03-26T06:06:59.555Z,64.47
2018-03-26T06:09:27.783Z,63.30
2018-03-26T06:11:56.095Z,69.00
2018-03-26T06:14:24.354Z,55.33
2018-03-26T06:17:04.556Z,60.03
2018-03-26T06:19:32.832Z,62.77
2018-03-26T06:22:01.112Z,59.77
2018-03-26T06:24:29.391Z,68.90
2018-03-26T06:26:57.672Z,65.70
2018-03-26T06:29:25.983Z,60.77
2018-03-26T06:31:54.247Z,54.43
2018-03-26T06:34:22.523Z,54.10
2018-03-26T06:36:51.675Z,57.93
2018-03-26T06:39:24.335Z,62.47
2018-03-26T06:41:52.623Z,58.87
2018-03-26T06:44:20.896Z,60.27
2018-03-26T06:46:49.507Z,41.27
2018-03-26T06:49:17.785Z,59.07
2018-03-26T06:51:46.064Z,61.47
2018-03-26T06:54:14.360Z,60.47
2018-03-26T06:56:42.660Z,67.90
2018-03-26T06:59:10.958Z,48.67
2018-03-26T07:01:39.217Z,57.60
2018-03-26T07:04:07.496Z,59.93
2018-03-26T07:06:35.776Z,52.83
2018-03-26T07:09:04.054Z,51.30
2018-03-26T07:11:32.352Z,50.30
2018-03-26T07:14:00.645Z,58.97
2018-03-26T07:16:28.901Z,67.70
2018-03-26T07:18:57.233Z,53.30
2018-03-26T07:21:25.461Z,58.23
2018-03-26T07:23:53.765Z,58.77
2018-03-26T07:26:22.040Z,52.67
2018-03-26T07:28:50.317Z,55.80
2018-03-26T07:31:18.642Z,53.57
2018-03-26T07:33:46.888Z,57.83
2018-03-26T07:36:15.184Z,58.77
2018-03-26T07:38:43.464Z,52.20
2018-03-26T07:41:11.777Z,52.80
2018-03-26T07:43:40.049Z,61.03
2018-03-26T07:46:08.408Z,54.27
2018-03-26T07:48:36.707Z,62.60
2018-03-26T07:51:04.999Z,53.50
2018-03-26T07:53:33.280Z,56.93
2018-03-26T07:56:01.572Z,57.83
2018-03-26T07:58:29.862Z,57.63
2018-03-26T08:00:58.164Z,60.97
2018-03-26T08:03:26.452Z,57.80
2018-03-26T08:05:54.744Z,54.27
2018-03-26T08:08:23.032Z,54.83
2018-03-26T08:10:51.310Z,56.00
2018-03-26T08:13:19.615Z,60.77
2018-03-26T08:15:47.899Z,65.40
2018-03-26T08:18:16.185Z,62.50
2018-03-26T08:20:44.474Z,64.37
2018-03-26T08:23:12.763Z,58.47
2018-03-26T08:25:41.074Z,53.77
2018-03-26T08:28:09.352Z,58.30
2018-03-26T08:30:37.631Z,54.93
2018-03-26T08:33:05.932Z,59.43
2018-03-26T08:35:34.216Z,60.20
2018-03-26T08:38:02.512Z,59.37
2018-03-26T08:40:30.831Z,63.43
2018-03-26T08:42:59.139Z,61.03
2018-03-26T08:45:27.469Z,38.87
2018-03-26T08:47:55.751Z,54.57
2018-03-26T08:50:24.092Z,52.17
2018-03-26T08:52:52.325Z,60.40
2018-03-26T08:55:20.607Z,44.70
2018-03-26T08:57:48.908Z,65.37
2018-03-26T09:00:17.192Z,66.03
2018-03-26T09:02:45.504Z,57.57
2018-03-26T09:05:13.791Z,56.13
2018-03-26T09:07:42.075Z,65.70
2018-03-26T09:10:10.363Z,62.13
2018-03-26T09:12:38.643Z,72.87
2018-03-26T09:15:06.943Z,68.87
2018-03-26T09:17:35.376Z,65.53
2018-03-26T09:20:03.608Z,66.70
2018-03-26T09:22:31.908Z,68.97
2018-03-26T09:25:00.199Z,51.83
2018-03-26T09:27:28.476Z,68.60
2018-03-26T09:29:56.765Z,72.00
2018-03-26T09:32:25.073Z,66.33
2018-03-26T09:34:53.379Z,71.83
2018-03-26T09:37:21.672Z,59.70
2018-03-26T09:39:49.956Z,51.23
2018-03-26T09:42:18.248Z,69.77
2018-03-26T09:44:46.568Z,66.03
2018-03-26T09:47:14.851Z,65.97
2018-03-26T09:49:43.151Z,64.77
2018-03-26T09:52:11.439Z,66.07
2018-03-26T09:54:39.731Z,66.80
2018-03-26T09:57:08.083Z,72.13
2018-03-26T09:59:36.436Z,62.30
2018-03-26T10:02:04.734Z,55.03
2018-03-26T10:04:33.034Z,55.00
2018-03-26T10:07:01.319Z,50.03
2018-03-26T10:09:29.618Z,55.17
2018-03-26T10:11:57.947Z,54.67
2018-03-26T10:14:26.376Z,46.07
2018-03-26T10:16:54.989Z,45.03
2018-03-26T10:19:23.292Z,51.27
2018-03-26T10:21:51.576Z,42.07
2018-03-26T10:24:19.872Z,38.33
2018-03-26T10:26:48.151Z,38.83
2018-03-26T10:29:17.267Z,33.33
2018-03-26T10:31:45.582Z,27.87
2018-03-26T10:34:13.861Z,24.57
2018-03-26T10:36:42.242Z,24.80
2018-03-26T10:39:10.530Z,23.60
2018-03-26T10:41:39.496Z,23.47
2018-03-26T10:44:07.800Z,20.57
2018-03-26T10:46:36.072Z,20.27
2018-03-26T10:49:04.368Z,24.43
2018-03-26T10:51:32.666Z,18.10
2018-03-26T10:54:00.940Z,17.83
2018-03-26T10:56:29.239Z,16.20
2018-03-26T10:58:57.507Z,10.80
2018-03-26T11:01:25.796Z,16.03
2018-03-26T11:03:54.113Z,15.30
2018-03-26T11:06:22.395Z,20.97
2018-03-26T11:08:50.694Z,19.63
2018-03-26T11:11:18.975Z,11.33
2018-03-26T11:13:47.252Z,14.63
2018-03-26T11:16:15.544Z,16.30
2018-03-26T11:18:43.834Z,17.77
2018-03-26T11:21:12.463Z,20.70
2018-03-26T11:23:40.740Z,21.50
2018-03-26T11:26:09.023Z,20.20
2018-03-26T11:28:37.315Z,19.27
2018-03-26T11:31:05.596Z,19.27
2018-03-26T11:33:33.906Z,25.93
2018-03-26T11:36:02.204Z,20.73
2018-03-26T11:38:30.482Z,27.67
2018-03-26T11:40:58.775Z,21.20
2018-03-26T11:43:27.067Z,27.33
2018-03-26T11:45:55.366Z,19.97
2018-03-26T11:51:20.795Z,14.50
2018-03-26T11:53:49.087Z,10.97
2018-03-26T11:56:17.371Z,14.83
2018-03-26T11:58:45.659Z,13.90
2018-03-26T12:01:13.944Z,15.70
2018-03-26T12:03:42.239Z,13.00
2018-03-26T12:06:10.521Z,12.60
2018-03-26T12:08:38.815Z,11.83
2018-03-26T12:11:07.085Z,11.47
2018-03-26T12:13:35.376Z,11.63
2018-03-26T12:16:03.643Z,9.33
2018-03-26T12:18:31.943Z,17.23
2018-03-26T12:21:02.197Z,9.07
2018-03-26T12:23:42.296Z,11.53
2018-03-26T12:26:10.576Z,10.23
2018-03-26T12:28:50.643Z,5.80
2018-03-26T12:31:18.934Z,195.47
2018-03-26T12:33:58.980Z,26.40
2018-03-26T12:36:27.248Z,9.47
2018-03-26T12:38:55.577Z,8.00
2018-03-26T12:41:23.831Z,4.83
2018-03-26T12:43:52.119Z,5.97
2018-03-26T12:46:32.256Z,6.10
2018-03-26T12:49:00.551Z,7.00
2018-03-26T12:51:40.742Z,8.33
2018-03-26T12:54:09.015Z,7.60
2018-03-26T12:56:38.231Z,5.97
2018-03-26T12:59:06.507Z,9.33
2018-03-26T13:01:46.699Z,10.53
2018-03-26T13:04:14.992Z,14.53
2018-03-26T13:06:43.263Z,12.13
2018-03-26T13:09:11.861Z,11.50
2018-03-26T13:11:40.127Z,12.87
2018-03-26T13:14:08.408Z,15.53
2018-03-26T13:16:36.743Z,14.43
2018-03-26T13:19:05.039Z,16.23
2018-03-26T13:21:33.331Z,14.83
2018-03-26T13:24:01.612Z,18.53
2018-03-26T13:26:29.904Z,18.23
2018-03-26T13:28:58.183Z,17.07
2018-03-26T13:31:26.499Z,15.90
2018-03-26T13:33:54.776Z,18.07
2018-03-26T13:36:23.048Z,11.97
2018-03-26T13:38:51.329Z,11.83
2018-03-26T13:41:19.599Z,12.50
2018-03-26T13:43:47.884Z,13.47
2018-03-26T13:46:16.156Z,9.10
2018-03-26T13:48:44.456Z,12.07
2018-03-26T13:51:12.731Z,12.33
2018-03-26T13:53:41.026Z,10.67
2018-03-26T13:56:09.297Z,11.10
2018-03-26T13:58:37.632Z,12.20
2018-03-26T14:01:05.865Z,9.20
2018-03-26T14:03:34.235Z,11.90
2018-03-26T14:06:02.531Z,9.07
2018-03-26T14:12:01.213Z,12.03
2018-03-26T14:14:41.416Z,10.63
2018-03-26T14:17:21.463Z,9.50
2018-03-26T14:19:49.751Z,7.10
2018-03-26T14:22:18.027Z,7.77
2018-03-26T14:24:46.292Z,6.10
2018-03-26T14:27:14.571Z,8.63
2018-03-26T14:29:42.843Z,6.60
2018-03-26T14:32:11.128Z,7.33
2018-03-26T14:34:39.403Z,8.67
2018-03-26T14:37:07.684Z,6.97
2018-03-26T14:39:35.960Z,8.57
2018-03-26T14:42:04.235Z,8.23
2018-03-26T14:44:32.519Z,9.83
2018-03-26T14:47:00.788Z,5.27
2018-03-26T14:49:29.071Z,4.30
2018-03-26T14:51:57.347Z,4.43
2018-03-26T14:54:25.609Z,5.47
2018-03-26T14:56:53.888Z,6.60
2018-03-26T14:59:22.164Z,4.43
2018-03-26T15:01:50.447Z,5.43
2018-03-26T15:04:18.740Z,6.03
2018-03-26T15:06:47.024Z,5.20
2018-03-26T15:09:15.447Z,5.43
2018-03-26T15:11:43.716Z,4.03
2018-03-26T15:14:11.999Z,2.87
2018-03-26T15:16:46.098Z,3.83
2018-03-26T15:19:14.375Z,7.07
2018-03-26T15:21:42.651Z,6.70
2018-03-26T15:24:10.970Z,5.93
2018-03-26T15:26:39.248Z,3.40
2018-03-26T15:29:07.511Z,3.03
2018-03-26T15:31:35.795Z,2.80
2018-03-26T15:34:04.065Z,3.17
2018-03-26T15:36:32.335Z,4.93
2018-03-26T15:39:00.968Z,4.77
2018-03-26T15:41:29.256Z,5.80
2018-03-26T15:43:57.529Z,5.53
2018-03-26T15:46:25.793Z,4.90
2018-03-26T15:48:54.072Z,4.73
2018-03-26T15:51:22.341Z,5.03
2018-03-26T15:53:50.628Z,5.97
2018-03-26T15:56:18.896Z,5.63
2018-03-26T15:58:47.191Z,5.27
2018-03-26T16:01:15.463Z,4.07
2018-03-26T16:03:43.735Z,4.93
2018-03-26T16:06:12.015Z,6.43
2018-03-26T16:08:40.292Z,3.43
2018-03-26T16:11:08.575Z,5.07
2018-03-26T16:13:36.848Z,5.10
2018-03-26T16:16:05.120Z,5.93
2018-03-26T16:18:33.452Z,4.87
2018-03-26T16:21:01.666Z,5.40
2018-03-26T16:23:29.948Z,6.70
2018-03-26T16:25:58.223Z,5.53
2018-03-26T16:28:26.503Z,5.33
2018-03-26T16:30:54.768Z,6.27
2018-03-26T16:33:23.035Z,5.20
2018-03-26T16:35:51.320Z,6.10
2018-03-26T16:38:19.597Z,8.20
2018-03-26T16:40:47.888Z,9.23
2018-03-26T16:43:16.159Z,8.57
2018-03-26T16:45:44.439Z,8.57
2018-03-26T16:48:12.723Z,11.00
2018-03-26T16:50:41.012Z,7.07
2018-03-26T16:53:09.279Z,9.67
2018-03-26T16:55:37.553Z,11.07
2018-03-26T16:58:05.831Z,7.70
2018-03-26T17:00:34.131Z,11.70
2018-03-26T17:03:02.412Z,9.10
2018-03-26T17:05:30.680Z,6.30
2018-03-26T17:07:58.960Z,9.23
2018-03-26T17:10:27.231Z,6.50
2018-03-26T17:12:55.513Z,8.77
2018-03-26T17:15:23.780Z,7.53
2018-03-26T17:17:52.059Z,6.37
2018-03-26T17:20:20.346Z,5.87
2018-03-26T17:22:48.616Z,7.67
2018-03-26T17:25:16.892Z,6.70
2018-03-26T17:27:45.160Z,7.63
2018-03-26T17:30:13.452Z,7.30
2018-03-26T17:32:41.719Z,6.53
2018-03-26T17:35:10.016Z,6.10
2018-03-26T17:37:38.288Z,7.03
2018-03-26T17:40:06.560Z,6.90
2018-03-26T17:42:34.844Z,6.10
2018-03-26T17:45:03.121Z,10.30
2018-03-26T17:47:31.511Z,6.07
2018-03-26T17:49:59.771Z,5.57
2018-03-26T17:52:28.068Z,7.90
2018-03-26T17:54:56.320Z,6.17
2018-03-26T17:57:24.611Z,6.40
2018-03-26T17:59:52.884Z,5.33
2018-03-26T18:02:21.152Z,4.20
2018-03-26T18:04:49.427Z,4.60
2018-03-26T18:07:17.699Z,5.83
2018-03-26T18:09:45.987Z,7.63
2018-03-26T18:12:14.267Z,6.60
2018-03-26T18:14:42.554Z,4.67
2018-03-26T18:17:10.831Z,5.70
2018-03-26T18:19:39.133Z,5.10
2018-03-26T18:22:07.410Z,8.00
2018-03-26T18:24:35.676Z,4.70
2018-03-26T18:27:03.955Z,4.97
2018-03-26T18:29:32.229Z,4.37
2018-03-26T18:32:00.516Z,9.77
2018-03-26T18:34:28.788Z,7.30
2018-03-26T18:36:57.067Z,4.47
2018-03-26T18:39:25.337Z,4.67
2018-03-26T18:41:53.620Z,5.47
2018-03-26T18:44:21.895Z,7.00
2018-03-26T18:46:50.159Z,5.97
2018-03-26T18:49:18.446Z,5.70
2018-03-26T18:51:46.704Z,6.07
2018-03-26T18:54:14.990Z,8.77
2018-03-26T18:56:43.260Z,6.97
2018-03-26T18:59:11.531Z,8.17
2018-03-26T19:01:39.804Z,6.27
2018-03-26T19:04:08.115Z,4.60
2018-03-26T19:06:36.395Z,6.70
2018-03-26T19:09:04.667Z,4.73
2018-03-26T19:11:32.948Z,6.27
2018-03-26T19:14:01.231Z,6.37
2018-03-26T19:16:29.509Z,9.60
2018-03-26T19:18:57.776Z,6.53
2018-03-26T19:21:26.081Z,8.37
2018-03-26T19:23:54.352Z,6.43
2018-03-26T19:26:22.624Z,6.93
2018-03-26T19:28:50.908Z,5.30
2018-03-26T19:31:19.175Z,8.47
2018-03-26T19:33:47.472Z,12.93
2018-03-26T19:36:15.733Z,9.10
2018-03-26T19:38:44.029Z,8.67
2018-03-26T19:41:12.304Z,17.47
2018-03-26T19:43:40.579Z,9.00
2018-03-26T19:46:08.873Z,11.00
2018-03-26T19:48:37.144Z,15.13
2018-03-26T19:51:05.426Z,9.83
2018-03-26T19:53:33.722Z,13.53
2018-03-26T19:56:02.002Z,12.33
2018-03-26T19:58:30.275Z,8.37
2018-03-26T20:00:58.907Z,7.90
2018-03-26T20:03:27.194Z,9.57
2018-03-26T20:05:55.460Z,11.20
2018-03-26T20:08:23.743Z,11.23
2018-03-26T20:10:52.035Z,10.23
2018-03-26T20:13:20.319Z,8.27
2018-03-26T20:15:48.587Z,6.40
2018-03-26T20:18:16.876Z,11.03
2018-03-26T20:20:45.146Z,7.83
2018-03-26T20:23:13.443Z,12.37
2018-03-26T20:25:41.712Z,13.10
2018-03-26T20:28:10.009Z,10.40
2018-03-26T20:30:38.287Z,10.17
2018-03-26T20:33:06.564Z,11.30
2018-03-26T20:35:34.856Z,12.43
2018-03-26T20:38:03.139Z,10.83
2018-03-26T20:40:31.424Z,11.77
2018-03-26T20:42:59.703Z,10.13
2018-03-26T20:45:27.997Z,10.43
2018-03-26T20:47:56.268Z,10.47
2018-03-26T20:50:24.551Z,9.93
2018-03-26T20:52:52.828Z,11.33
2018-03-26T20:55:21.088Z,7.33
2018-03-26T20:57:49.376Z,10.60
2018-03-26T21:00:17.656Z,12.93
2018-03-26T21:02:45.938Z,8.93
2018-03-26T21:05:14.223Z,12.27
2018-03-26T21:07:42.507Z,10.53
2018-03-26T21:10:10.780Z,10.80
2018-03-26T21:12:39.051Z,10.13
2018-03-26T21:15:07.328Z,10.00
2018-03-26T21:17:35.596Z,10.23
2018-03-26T21:20:03.874Z,10.70
2018-03-26T21:22:32.143Z,12.43
2018-03-26T21:25:00.431Z,11.10
2018-03-26T21:27:28.704Z,6.90
2018-03-26T21:29:56.984Z,7.50
2018-03-26T21:32:25.264Z,11.07
2018-03-26T21:34:53.539Z,11.50
2018-03-26T21:37:21.835Z,10.33
2018-03-26T21:39:50.119Z,9.60
2018-03-26T21:42:18.403Z,13.50
2018-03-26T21:44:46.695Z,11.30
2018-03-26T21:47:14.968Z,9.07
2018-03-26T21:49:44.179Z,10.90
2018-03-26T21:52:12.983Z,10.90
2018-03-26T21:54:45.348Z,9.57
2018-03-26T21:57:13.636Z,13.07
2018-03-26T21:59:41.900Z,8.27
2018-03-26T22:02:10.167Z,11.77
2018-03-26T22:04:38.436Z,9.70
2018-03-26T22:07:06.696Z,8.77
2018-03-26T22:09:34.971Z,9.93
2018-03-26T22:12:03.247Z,12.67
2018-03-26T22:14:31.516Z,14.73
2018-03-26T22:16:59.790Z,11.07
2018-03-26T22:19:28.067Z,15.90
2018-03-26T22:21:56.340Z,10.30
2018-03-26T22:24:24.607Z,8.77
2018-03-26T22:26:52.897Z,10.57
2018-03-26T22:29:21.167Z,16.77
2018-03-26T22:31:49.443Z,10.07
2018-03-26T22:34:17.715Z,10.43
2018-03-26T22:36:45.987Z,8.93
2018-03-26T22:39:14.254Z,8.30
2018-03-26T22:41:42.549Z,11.63
2018-03-26T22:44:10.827Z,10.40
2018-03-26T22:46:39.100Z,10.67
2018-03-26T22:49:07.375Z,9.93
2018-03-26T22:51:35.640Z,11.97
2018-03-26T22:54:03.916Z,11.27
2018-03-26T22:56:32.192Z,10.33
2018-03-26T22:59:00.471Z,11.00
2018-03-26T23:01:28.739Z,12.93
2018-03-26T23:03:57.027Z,12.17
2018-03-26T23:06:25.293Z,14.80
2018-03-26T23:08:53.559Z,11.13
2018-03-26T23:11:21.836Z,9.73
2018-03-26T23:13:50.115Z,13.17
2018-03-26T23:16:18.402Z,12.00
2018-03-26T23:18:46.659Z,11.17
2018-03-26T23:21:14.935Z,13.47
2018-03-26T23:23:49.157Z,14.97
2018-03-26T23:26:17.438Z,12.63
2018-03-26T23:28:45.701Z,9.60
2018-03-26T23:31:14.012Z,11.93
2018-03-26T23:33:42.276Z,13.30
2018-03-26T23:36:10.562Z,14.87
2018-03-26T23:38:38.828Z,11.60
2018-03-26T23:41:07.095Z,13.53
2018-03-26T23:43:35.374Z,12.10
2018-03-26T23:46:03.648Z,11.97
2018-03-26T23:48:31.933Z,9.53
2018-03-26T23:51:00.200Z,12.87
2018-03-26T23:53:28.504Z,14.27
2018-03-26T23:55:56.772Z,11.87
2018-03-26T23:58:25.039Z,11.93
